Time,TemperatureF,DewpointF,PressureIn,WindDirection,WindDirectionDegrees,WindSpeedMPH,WindSpeedGustMPH,Humidity,HourlyPrecipIn,Conditions,Clouds,dailyrainin,SoftwareType,DateUTC
2013-07-15 00:04:00,77.0,76.4,30.11,SSE,157,0.0,-999.0,98,-99.99,,,0.00,Acu-Link.com,2013-07-15 04:04:00,
2013-07-15 00:20:00,77.0,76.4,30.12,ESE,112,0.0,-999.0,98,-99.99,,,0.00,Acu-Link.com,2013-07-15 04:20:00,
2013-07-15 00:35:00,77.4,76.8,30.12,West,270,0.0,-999.0,98,-99.99,,,0.00,Acu-Link.com,2013-07-15 04:35:00,
2013-07-15 00:50:00,77.5,76.9,30.12,South,180,0.0,-999.0,98,-99.99,,,0.00,Acu-Link.com,2013-07-15 04:50:00,
2013-07-15 01:06:00,77.5,76.9,30.10,WSW,247,0.0,-999.0,98,-99.99,,,0.00,Acu-Link.com,2013-07-15 05:06:00,
2013-07-15 01:21:00,77.0,76.4,30.11,South,180,0.0,-999.0,98,-99.99,,,0.00,Acu-Link.com,2013-07-15 05:21:00,
2013-07-15 01:36:00,76.6,76.0,30.12,SSW,202,0.0,-999.0,98,-99.99,,,0.00,Acu-Link.com,2013-07-15 05:36:00,
2013-07-15 01:52:00,76.5,75.9,30.11,West,270,0.0,-999.0,98,-99.99,,,0.00,Acu-Link.com,2013-07-15 05:52:00,
2013-07-15 02:07:00,76.1,75.5,30.10,SSW,202,0.0,-999.0,98,-99.99,,,0.00,Acu-Link.com,2013-07-15 06:07:00,
2013-07-15 02:22:00,75.7,75.1,30.12,West,270,0.0,-999.0,98,-99.99,,,0.00,Acu-Link.com,2013-07-15 06:22:00,
2013-07-15 02:37:00,75.7,75.1,30.11,South,180,0.0,-999.0,98,-99.99,,,0.00,Acu-Link.com,2013-07-15 06:37:00,
2013-07-15 02:53:00,75.2,74.6,30.09,SW,225,0.0,-999.0,98,-99.99,,,0.00,Acu-Link.com,2013-07-15 06:53:00,
2013-07-15 03:08:00,75.2,74.6,30.10,South,180,0.0,-999.0,98,-99.99,,,0.00,Acu-Link.com,2013-07-15 07:08:00,
2013-07-15 03:23:00,75.0,74.4,30.11,SSE,157,0.0,-999.0,98,-99.99,,,0.00,Acu-Link.com,2013-07-15 07:23:00,
2013-07-15 03:38:00,74.7,74.1,30.10,SSE,157,0.0,-999.0,98,-99.99,,,0.00,Acu-Link.com,2013-07-15 07:38:00,
2013-07-15 03:54:00,74.5,73.9,30.10,West,270,0.0,-999.0,98,-99.99,,,0.00,Acu-Link.com,2013-07-15 07:54:00,
2013-07-15 04:09:00,74.7,74.1,30.11,SSW,202,0.0,-999.0,98,-99.99,,,0.00,Acu-Link.com,2013-07-15 08:09:00,
2013-07-15 04:24:00,74.5,73.3,30.12,SE,135,0.0,-999.0,96,-99.99,,,0.00,Acu-Link.com,2013-07-15 08:24:00,
2013-07-15 04:39:00,74.5,70.7,30.10,South,180,0.0,-999.0,88,-99.99,,,0.00,Acu-Link.com,2013-07-15 08:39:00,
2013-07-15 04:54:00,74.5,67.2,30.10,West,270,0.0,-999.0,78,-99.99,,,0.00,Acu-Link.com,2013-07-15 08:54:00,
2013-07-15 05:10:00,74.3,64.3,30.12,SSE,157,0.0,-999.0,71,-99.99,,,0.00,Acu-Link.com,2013-07-15 09:10:00,
2013-07-15 05:25:00,74.1,60.7,30.11,South,180,0.0,-999.0,63,-99.99,,,0.00,Acu-Link.com,2013-07-15 09:25:00,
2013-07-15 05:40:00,74.3,59.0,30.12,SSW,202,0.0,-999.0,59,-99.99,,,0.00,Acu-Link.com,2013-07-15 09:40:00,
2013-07-15 05:55:00,74.3,55.0,30.11,South,180,0.0,-999.0,51,-99.99,,,0.00,Acu-Link.com,2013-07-15 09:55:00,
2013-07-15 06:10:00,74.3,52.7,30.11,South,180,0.0,-999.0,47,-99.99,,,0.00,Acu-Link.com,2013-07-15 10:10:00,
2013-07-15 06:25:00,75.0,48.3,30.11,South,180,0.0,-999.0,39,-99.99,,,0.00,Acu-Link.com,2013-07-15 10:25:00,
2013-07-15 06:41:00,75.6,50.2,30.12,West,270,0.0,-999.0,41,-99.99,,,0.00,Acu-Link.com,2013-07-15 10:41:00,
2013-07-15 06:56:00,75.7,54.6,30.12,East,90,0.0,-999.0,48,-99.99,,,0.00,Acu-Link.com,2013-07-15 10:56:00,
2013-07-15 07:11:00,76.1,60.7,30.12,ESE,112,0.0,-999.0,59,-99.99,,,0.00,Acu-Link.com,2013-07-15 11:11:00,
2013-07-15 07:27:00,76.8,66.3,30.11,SSW,202,0.0,-999.0,70,-99.99,,,0.00,Acu-Link.com,2013-07-15 11:27:00,
2013-07-15 07:42:00,78.1,70.7,30.12,SSW,202,0.0,-999.0,78,-99.99,,,0.00,Acu-Link.com,2013-07-15 11:42:00,
2013-07-15 07:57:00,79.3,75.4,30.12,West,270,0.0,-999.0,88,-99.99,,,0.00,Acu-Link.com,2013-07-15 11:57:00,
2013-07-15 08:13:00,79.9,79.3,30.11,WSW,247,0.0,-999.0,98,-99.99,,,0.00,Acu-Link.com,2013-07-15 12:13:00,
2013-07-15 08:28:00,79.9,79.3,30.12,West,270,0.0,-999.0,98,-99.99,,,0.00,Acu-Link.com,2013-07-15 12:28:00,
2013-07-15 08:43:00,81.1,80.5,30.10,West,270,0.0,-999.0,98,-99.99,,,0.00,Acu-Link.com,2013-07-15 12:43:00,
2013-07-15 08:58:00,83.3,82.7,30.12,ENE,67,0.0,-999.0,98,-99.99,,,0.00,Acu-Link.com,2013-07-15 12:58:00,
2013-07-15 09:14:00,84.2,83.6,30.10,ESE,112,0.0,-999.0,98,-99.99,,,0.00,Acu-Link.com,2013-07-15 13:14:00,
2013-07-15 09:29:00,85.1,84.5,30.11,ESE,112,0.0,-999.0,98,-99.99,,,0.00,Acu-Link.com,2013-07-15 13:29:00,
2013-07-15 09:44:00,84.4,83.8,30.10,SW,225,0.0,-999.0,98,-99.99,,,0.00,Acu-Link.com,2013-07-15 13:44:00,
2013-07-15 10:00:00,84.7,84.1,30.10,ESE,112,1.7,-999.0,98,-99.99,,,0.00,Acu-Link.com,2013-07-15 14:00:00,
2013-07-15 10:15:00,85.8,85.2,30.11,ESE,112,1.7,-999.0,98,-99.99,,,0.00,Acu-Link.com,2013-07-15 14:15:00,
2013-07-15 10:30:00,87.4,86.8,30.09,ESE,112,0.0,-999.0,98,-99.99,,,0.00,Acu-Link.com,2013-07-15 14:30:00,
2013-07-15 10:46:00,89.4,88.8,30.08,West,270,2.2,-999.0,98,-99.99,,,0.00,Acu-Link.com,2013-07-15 14:46:00,
2013-07-15 11:01:00,88.2,87.6,30.08,ENE,67,0.0,-999.0,98,-99.99,,,0.00,Acu-Link.com,2013-07-15 15:01:00,
2013-07-15 11:16:00,88.3,87.7,30.09,North,0,0.0,-999.0,98,-99.99,,,0.00,Acu-Link.com,2013-07-15 15:16:00,
2013-07-15 11:31:00,88.7,88.1,30.10,West,270,2.2,-999.0,98,-99.99,,,0.00,Acu-Link.com,2013-07-15 15:31:00,
2013-07-15 11:47:00,89.2,88.6,30.08,NE,45,0.0,-999.0,98,-99.99,,,0.00,Acu-Link.com,2013-07-15 15:47:00,
2013-07-15 12:02:00,88.5,87.9,30.09,ENE,67,1.1,-999.0,98,-99.99,,,0.00,Acu-Link.com,2013-07-15 16:02:00,
2013-07-15 12:17:00,88.5,87.9,30.09,ENE,67,0.0,-999.0,98,-99.99,,,0.00,Acu-Link.com,2013-07-15 16:17:00,
2013-07-15 12:32:00,88.9,88.3,30.07,NNE,22,2.2,-999.0,98,-99.99,,,0.00,Acu-Link.com,2013-07-15 16:32:00,
2013-07-15 12:48:00,93.2,88.7,30.08,ESE,112,0.0,-999.0,87,-99.99,,,0.00,Acu-Link.com,2013-07-15 16:48:00,
2013-07-15 13:03:00,90.7,90.1,30.07,ESE,112,1.7,-999.0,98,-99.99,,,0.00,Acu-Link.com,2013-07-15 17:03:00,
2013-07-15 13:18:00,92.7,87.1,30.06,East,90,2.2,-999.0,84,-99.99,,,0.00,Acu-Link.com,2013-07-15 17:18:00,
2013-07-15 13:34:00,91.4,90.8,30.05,WSW,247,2.2,-999.0,98,-99.99,,,0.00,Acu-Link.com,2013-07-15 17:34:00,
2013-07-15 13:49:00,91.0,90.4,30.07,SW,225,0.0,-999.0,98,-99.99,,,0.00,Acu-Link.com,2013-07-15 17:49:00,
2013-07-15 14:04:00,90.0,88.7,30.06,East,90,5.3,-999.0,96,-99.99,,,0.00,Acu-Link.com,2013-07-15 18:04:00,
2013-07-15 14:19:00,90.5,89.5,30.04,NE,45,2.2,-999.0,97,-99.99,,,0.00,Acu-Link.com,2013-07-15 18:19:00,
2013-07-15 14:34:00,91.4,88.0,30.06,ENE,67,0.0,-999.0,90,-99.99,,,0.00,Acu-Link.com,2013-07-15 18:34:00,
2013-07-15 14:49:00,89.4,88.8,30.05,NE,45,0.0,-999.0,98,-99.99,,,0.00,Acu-Link.com,2013-07-15 18:49:00,
2013-07-15 15:05:00,90.3,89.7,30.04,NNE,22,0.0,-999.0,98,-99.99,,,0.00,Acu-Link.com,2013-07-15 19:05:00,
2013-07-15 15:20:00,90.5,89.5,30.04,NE,45,0.0,-999.0,97,-99.99,,,0.00,Acu-Link.com,2013-07-15 19:20:00,
2013-07-15 15:35:00,90.0,87.0,30.04,NE,45,2.2,-999.0,91,-99.99,,,0.00,Acu-Link.com,2013-07-15 19:35:00,
2013-07-15 15:50:00,91.9,85.6,30.05,NNE,22,1.7,-999.0,82,-99.99,,,0.00,Acu-Link.com,2013-07-15 19:50:00,
2013-07-15 16:06:00,90.9,88.2,30.03,South,180,0.0,-999.0,92,-99.99,,,0.00,Acu-Link.com,2013-07-15 20:06:00,
2013-07-15 16:21:00,91.8,85.9,30.03,ENE,67,0.0,-999.0,83,-99.99,,,0.00,Acu-Link.com,2013-07-15 20:21:00,
2013-07-15 16:36:00,91.6,87.5,30.04,East,90,0.0,-999.0,88,-99.99,,,0.00,Acu-Link.com,2013-07-15 20:36:00,
2013-07-15 16:51:00,90.0,85.6,30.03,NNE,22,1.7,-999.0,87,-99.99,,,0.00,Acu-Link.com,2013-07-15 20:51:00,
2013-07-15 17:07:00,91.8,86.3,30.01,NE,45,1.7,-999.0,84,-99.99,,,0.00,Acu-Link.com,2013-07-15 21:07:00,
2013-07-15 17:22:00,90.3,81.7,30.04,NE,45,4.2,-999.0,76,-99.99,,,0.00,Acu-Link.com,2013-07-15 21:22:00,
2013-07-15 17:37:00,90.5,83.8,30.01,ENE,67,0.0,-999.0,81,-99.99,,,0.00,Acu-Link.com,2013-07-15 21:37:00,
2013-07-15 17:52:00,90.0,85.2,30.03,NNE,22,0.0,-999.0,86,-99.99,,,0.00,Acu-Link.com,2013-07-15 21:52:00,
2013-07-15 18:23:00,88.9,86.6,30.01,NNE,22,0.0,-999.0,93,-99.99,,,0.00,Acu-Link.com,2013-07-15 22:23:00,
2013-07-15 18:38:00,88.7,88.1,30.03,East,90,0.0,-999.0,98,-99.99,,,0.00,Acu-Link.com,2013-07-15 22:38:00,
2013-07-15 18:53:00,88.2,87.6,30.01,ESE,112,0.0,-999.0,98,-99.99,,,0.00,Acu-Link.com,2013-07-15 22:53:00,
2013-07-15 19:09:00,87.6,87.0,30.02,ESE,112,0.0,-999.0,98,-99.99,,,0.00,Acu-Link.com,2013-07-15 23:09:00,
2013-07-15 19:24:00,86.5,85.9,30.03,ESE,112,0.0,-999.0,98,-99.99,,,0.00,Acu-Link.com,2013-07-15 23:24:00,
2013-07-15 19:39:00,85.8,85.2,30.01,East,90,0.0,-999.0,98,-99.99,,,0.00,Acu-Link.com,2013-07-15 23:39:00,
2013-07-15 20:10:00,84.6,84.0,30.01,ENE,67,0.0,-999.0,98,-99.99,,,0.00,Acu-Link.com,2013-07-16 00:10:00,
2013-07-15 20:25:00,83.3,82.7,30.03,ENE,67,0.0,-999.0,98,-99.99,,,0.00,Acu-Link.com,2013-07-16 00:25:00,
2013-07-15 21:26:00,79.5,78.9,30.03,NNW,337,0.0,-999.0,98,-99.99,,,0.00,Acu-Link.com,2013-07-16 01:26:00,
2013-07-15 21:57:00,79.2,78.6,30.02,SE,135,0.0,-999.0,98,-99.99,,,0.00,Acu-Link.com,2013-07-16 01:57:00,
2013-07-15 22:12:00,79.2,78.6,30.04,SW,225,0.0,-999.0,98,-99.99,,,0.00,Acu-Link.com,2013-07-16 02:12:00,
2013-07-15 22:27:00,78.6,78.0,30.05,South,180,0.0,-999.0,98,-99.99,,,0.00,Acu-Link.com,2013-07-16 02:27:00,
2013-07-15 22:43:00,78.3,77.7,30.05,West,270,0.0,-999.0,98,-99.99,,,0.00,Acu-Link.com,2013-07-16 02:43:00,
2013-07-15 22:58:00,77.7,77.1,30.04,South,180,0.0,-999.0,98,-99.99,,,0.00,Acu-Link.com,2013-07-16 02:58:00,
2013-07-15 23:28:00,76.8,76.2,30.02,NNE,22,0.0,-999.0,98,-99.99,,,0.00,Acu-Link.com,2013-07-16 03:28:00,
2013-07-15 23:44:00,77.2,76.6,30.03,South,180,0.0,-999.0,98,-99.99,,,0.00,Acu-Link.com,2013-07-16 03:44:00,
2013-07-15 23:59:00,78.6,78.0,30.04,North,0,0.0,-999.0,98,-99.99,,,0.00,Acu-Link.com,2013-07-16 03:59:00,